sensor_id;sensor_type;location;lat;lon;timestamp;temperature;humidity
40600;DHT22;26309;50.924;4.754;2023-10-31T00:01:52;12.20;99.90
40600;DHT22;26309;50.924;4.754;2023-10-31T00:04:17;12.20;99.90
40600;DHT22;26309;50.924;4.754;2023-10-31T00:06:43;12.20;99.90
40600;DHT22;26309;50.924;4.754;2023-10-31T00:09:10;12.30;99.90
40600;DHT22;26309;50.924;4.754;2023-10-31T00:11:40;12.40;99.90
40600;DHT22;26309;50.924;4.754;2023-10-31T00:14:06;12.30;99.90
40600;DHT22;26309;50.924;4.754;2023-10-31T00:16:32;12.20;99.90
40600;DHT22;26309;50.924;4.754;2023-10-31T00:18:58;12.20;99.90
40600;DHT22;26309;50.924;4.754;2023-10-31T00:21:24;12.20;99.90
40600;DHT22;26309;50.924;4.754;2023-10-31T00:23:50;12.30;99.90
40600;DHT22;26309;50.924;4.754;2023-10-31T00:26:16;12.30;99.90
40600;DHT22;26309;50.924;4.754;2023-10-31T00:28:41;12.30;99.90
40600;DHT22;26309;50.924;4.754;2023-10-31T00:31:07;12.30;99.90
40600;DHT22;26309;50.924;4.754;2023-10-31T00:33:34;12.20;99.90
40600;DHT22;26309;50.924;4.754;2023-10-31T00:36:01;12.30;99.90
40600;DHT22;26309;50.924;4.754;2023-10-31T00:38:28;12.30;99.90
40600;DHT22;26309;50.924;4.754;2023-10-31T00:40:54;12.30;99.90
40600;DHT22;26309;50.924;4.754;2023-10-31T00:43:19;12.40;99.90
40600;DHT22;26309;50.924;4.754;2023-10-31T00:45:45;12.50;99.90
40600;DHT22;26309;50.924;4.754;2023-10-31T00:48:14;12.40;99.90
40600;DHT22;26309;50.924;4.754;2023-10-31T00:50:40;12.50;99.90
40600;DHT22;26309;50.924;4.754;2023-10-31T00:53:07;12.60;99.90
40600;DHT22;26309;50.924;4.754;2023-10-31T00:55:33;12.50;99.90
40600;DHT22;26309;50.924;4.754;2023-10-31T00:57:59;12.50;99.90
40600;DHT22;26309;50.924;4.754;2023-10-31T01:00:25;12.50;99.90
40600;DHT22;26309;50.924;4.754;2023-10-31T01:02:51;12.40;99.90
40600;DHT22;26309;50.924;4.754;2023-10-31T01:05:18;12.50;99.90
40600;DHT22;26309;50.924;4.754;2023-10-31T01:07:44;12.40;99.90
40600;DHT22;26309;50.924;4.754;2023-10-31T01:10:10;12.50;99.90
40600;DHT22;26309;50.924;4.754;2023-10-31T01:12:36;12.50;99.90
40600;DHT22;26309;50.924;4.754;2023-10-31T01:15:02;12.30;99.90
40600;DHT22;26309;50.924;4.754;2023-10-31T01:17:28;12.40;99.90
40600;DHT22;26309;50.924;4.754;2023-10-31T01:19:54;12.40;99.90
40600;DHT22;26309;50.924;4.754;2023-10-31T01:22:20;12.30;99.90
40600;DHT22;26309;50.924;4.754;2023-10-31T01:24:45;12.30;99.90
40600;DHT22;26309;50.924;4.754;2023-10-31T01:27:11;12.40;99.90
40600;DHT22;26309;50.924;4.754;2023-10-31T01:29:37;12.20;99.90
40600;DHT22;26309;50.924;4.754;2023-10-31T01:32:03;12.20;99.90
40600;DHT22;26309;50.924;4.754;2023-10-31T01:34:29;12.20;99.90
40600;DHT22;26309;50.924;4.754;2023-10-31T01:36:55;12.30;99.90
40600;DHT22;26309;50.924;4.754;2023-10-31T01:39:21;12.30;99.90
40600;DHT22;26309;50.924;4.754;2023-10-31T01:41:46;12.30;99.90
40600;DHT22;26309;50.924;4.754;2023-10-31T01:44:13;12.30;99.90
40600;DHT22;26309;50.924;4.754;2023-10-31T01:46:39;12.40;99.90
40600;DHT22;26309;50.924;4.754;2023-10-31T01:49:05;12.40;99.90
40600;DHT22;26309;50.924;4.754;2023-10-31T01:51:31;12.50;99.90
40600;DHT22;26309;50.924;4.754;2023-10-31T01:53:57;12.30;99.90
40600;DHT22;26309;50.924;4.754;2023-10-31T01:56:23;12.30;99.90
40600;DHT22;26309;50.924;4.754;2023-10-31T01:58:50;12.30;99.90
40600;DHT22;26309;50.924;4.754;2023-10-31T02:01:17;12.20;99.90
40600;DHT22;26309;50.924;4.754;2023-10-31T02:03:43;12.30;99.90
40600;DHT22;26309;50.924;4.754;2023-10-31T02:06:09;12.30;99.90
40600;DHT22;26309;50.924;4.754;2023-10-31T02:08:35;12.10;99.90
40600;DHT22;26309;50.924;4.754;2023-10-31T02:11:01;12.20;99.90
40600;DHT22;26309;50.924;4.754;2023-10-31T02:13:27;12.20;99.90
40600;DHT22;26309;50.924;4.754;2023-10-31T02:15:53;12.20;99.90
40600;DHT22;26309;50.924;4.754;2023-10-31T02:18:19;12.00;99.90
40600;DHT22;26309;50.924;4.754;2023-10-31T02:20:45;12.10;99.90
40600;DHT22;26309;50.924;4.754;2023-10-31T02:23:10;12.10;99.90
40600;DHT22;26309;50.924;4.754;2023-10-31T02:25:36;12.10;99.90
40600;DHT22;26309;50.924;4.754;2023-10-31T02:28:02;12.20;99.90
40600;DHT22;26309;50.924;4.754;2023-10-31T02:30:28;12.30;99.90
40600;DHT22;26309;50.924;4.754;2023-10-31T02:32:54;12.40;99.90
40600;DHT22;26309;50.924;4.754;2023-10-31T02:35:20;12.30;99.90
40600;DHT22;26309;50.924;4.754;2023-10-31T02:37:46;12.40;99.90
40600;DHT22;26309;50.924;4.754;2023-10-31T02:40:13;12.30;99.90
40600;DHT22;26309;50.924;4.754;2023-10-31T02:42:39;12.30;99.90
40600;DHT22;26309;50.924;4.754;2023-10-31T02:45:05;12.30;99.90
40600;DHT22;26309;50.924;4.754;2023-10-31T02:47:31;12.40;99.90
40600;DHT22;26309;50.924;4.754;2023-10-31T02:49:57;12.20;99.90
40600;DHT22;26309;50.924;4.754;2023-10-31T02:52:23;12.20;99.90
40600;DHT22;26309;50.924;4.754;2023-10-31T02:54:49;12.00;99.90
40600;DHT22;26309;50.924;4.754;2023-10-31T02:57:16;12.20;99.90
40600;DHT22;26309;50.924;4.754;2023-10-31T02:59:42;12.00;99.90
40600;DHT22;26309;50.924;4.754;2023-10-31T03:02:08;12.00;99.90
40600;DHT22;26309;50.924;4.754;2023-10-31T03:04:34;11.90;99.90
40600;DHT22;26309;50.924;4.754;2023-10-31T03:06:59;12.00;99.90
40600;DHT22;26309;50.924;4.754;2023-10-31T03:09:25;11.90;99.90
40600;DHT22;26309;50.924;4.754;2023-10-31T03:11:51;12.10;99.90
40600;DHT22;26309;50.924;4.754;2023-10-31T03:14:17;12.20;99.90
40600;DHT22;26309;50.924;4.754;2023-10-31T03:16:42;12.10;99.90
40600;DHT22;26309;50.924;4.754;2023-10-31T03:19:08;11.90;99.90
40600;DHT22;26309;50.924;4.754;2023-10-31T03:21:34;11.90;99.90
40600;DHT22;26309;50.924;4.754;2023-10-31T03:24:00;12.10;99.90
40600;DHT22;26309;50.924;4.754;2023-10-31T03:26:26;12.00;99.90
40600;DHT22;26309;50.924;4.754;2023-10-31T03:28:52;11.90;99.90
40600;DHT22;26309;50.924;4.754;2023-10-31T03:31:23;11.70;99.90
40600;DHT22;26309;50.924;4.754;2023-10-31T03:33:49;11.70;99.90
40600;DHT22;26309;50.924;4.754;2023-10-31T03:36:15;11.70;99.90
40600;DHT22;26309;50.924;4.754;2023-10-31T03:38:41;11.70;99.90
40600;DHT22;26309;50.924;4.754;2023-10-31T03:41:08;11.80;99.90
40600;DHT22;26309;50.924;4.754;2023-10-31T03:43:33;11.90;99.90
40600;DHT22;26309;50.924;4.754;2023-10-31T03:46:00;11.90;99.90
40600;DHT22;26309;50.924;4.754;2023-10-31T03:48:26;11.70;99.90
40600;DHT22;26309;50.924;4.754;2023-10-31T03:50:52;11.70;99.90
40600;DHT22;26309;50.924;4.754;2023-10-31T03:53:18;11.70;99.90
40600;DHT22;26309;50.924;4.754;2023-10-31T03:55:44;11.70;99.90
40600;DHT22;26309;50.924;4.754;2023-10-31T03:58:09;11.70;99.90
40600;DHT22;26309;50.924;4.754;2023-10-31T04:00:36;11.70;99.90
40600;DHT22;26309;50.924;4.754;2023-10-31T04:03:02;11.70;99.90
40600;DHT22;26309;50.924;4.754;2023-10-31T04:05:29;11.60;99.90
40600;DHT22;26309;50.924;4.754;2023-10-31T04:07:54;11.60;99.90
40600;DHT22;26309;50.924;4.754;2023-10-31T04:10:20;11.50;99.90
40600;DHT22;26309;50.924;4.754;2023-10-31T04:12:47;11.40;99.90
40600;DHT22;26309;50.924;4.754;2023-10-31T04:15:14;11.50;99.90
40600;DHT22;26309;50.924;4.754;2023-10-31T04:17:40;11.40;99.90
40600;DHT22;26309;50.924;4.754;2023-10-31T04:20:06;11.30;99.90
40600;DHT22;26309;50.924;4.754;2023-10-31T04:22:33;11.30;99.90
40600;DHT22;26309;50.924;4.754;2023-10-31T04:24:59;11.30;99.90
40600;DHT22;26309;50.924;4.754;2023-10-31T04:27:24;11.40;99.90
40600;DHT22;26309;50.924;4.754;2023-10-31T04:29:50;11.40;99.90
40600;DHT22;26309;50.924;4.754;2023-10-31T04:32:16;11.40;99.90
40600;DHT22;26309;50.924;4.754;2023-10-31T04:34:43;11.30;99.90
40600;DHT22;26309;50.924;4.754;2023-10-31T04:37:09;11.20;99.90
40600;DHT22;26309;50.924;4.754;2023-10-31T04:39:37;11.10;99.90
40600;DHT22;26309;50.924;4.754;2023-10-31T04:42:03;11.00;99.90
40600;DHT22;26309;50.924;4.754;2023-10-31T04:44:29;11.10;99.90
40600;DHT22;26309;50.924;4.754;2023-10-31T04:46:55;11.20;99.90
40600;DHT22;26309;50.924;4.754;2023-10-31T04:49:21;11.20;99.90
40600;DHT22;26309;50.924;4.754;2023-10-31T04:51:47;11.00;99.90
40600;DHT22;26309;50.924;4.754;2023-10-31T04:54:13;10.90;99.90
40600;DHT22;26309;50.924;4.754;2023-10-31T04:56:40;10.90;99.90
40600;DHT22;26309;50.924;4.754;2023-10-31T04:59:05;10.80;99.90
40600;DHT22;26309;50.924;4.754;2023-10-31T05:01:31;10.70;99.90
40600;DHT22;26309;50.924;4.754;2023-10-31T05:03:57;10.90;99.90
40600;DHT22;26309;50.924;4.754;2023-10-31T05:06:23;10.90;99.90
40600;DHT22;26309;50.924;4.754;2023-10-31T05:08:49;10.90;99.90
40600;DHT22;26309;50.924;4.754;2023-10-31T05:11:19;10.90;99.90
40600;DHT22;26309;50.924;4.754;2023-10-31T05:13:45;10.90;99.90
40600;DHT22;26309;50.924;4.754;2023-10-31T05:16:11;10.80;99.90
40600;DHT22;26309;50.924;4.754;2023-10-31T05:18:38;10.70;99.90
40600;DHT22;26309;50.924;4.754;2023-10-31T05:21:04;10.60;99.90
40600;DHT22;26309;50.924;4.754;2023-10-31T05:23:30;10.60;99.90
40600;DHT22;26309;50.924;4.754;2023-10-31T05:25:56;10.60;99.90
40600;DHT22;26309;50.924;4.754;2023-10-31T05:28:22;10.50;99.90
40600;DHT22;26309;50.924;4.754;2023-10-31T05:30:49;10.60;99.90
40600;DHT22;26309;50.924;4.754;2023-10-31T05:33:17;10.70;99.90
40600;DHT22;26309;50.924;4.754;2023-10-31T05:35:43;10.80;99.90
40600;DHT22;26309;50.924;4.754;2023-10-31T05:38:09;10.80;99.90
40600;DHT22;26309;50.924;4.754;2023-10-31T05:40:35;10.90;99.90
40600;DHT22;26309;50.924;4.754;2023-10-31T05:43:04;11.00;99.90
40600;DHT22;26309;50.924;4.754;2023-10-31T05:45:30;11.00;99.90
40600;DHT22;26309;50.924;4.754;2023-10-31T05:47:56;11.00;99.90
40600;DHT22;26309;50.924;4.754;2023-10-31T05:50:22;11.00;99.90
40600;DHT22;26309;50.924;4.754;2023-10-31T05:52:48;11.00;99.90
40600;DHT22;26309;50.924;4.754;2023-10-31T05:55:14;11.10;99.90
40600;DHT22;26309;50.924;4.754;2023-10-31T05:57:40;11.10;99.90
40600;DHT22;26309;50.924;4.754;2023-10-31T06:00:07;11.10;99.90
40600;DHT22;26309;50.924;4.754;2023-10-31T06:02:34;11.30;99.90
40600;DHT22;26309;50.924;4.754;2023-10-31T06:04:59;11.20;99.90
40600;DHT22;26309;50.924;4.754;2023-10-31T06:07:28;11.10;99.90
40600;DHT22;26309;50.924;4.754;2023-10-31T06:09:54;11.10;99.90
40600;DHT22;26309;50.924;4.754;2023-10-31T06:12:20;11.20;99.90
40600;DHT22;26309;50.924;4.754;2023-10-31T06:14:46;11.00;99.90
40600;DHT22;26309;50.924;4.754;2023-10-31T06:17:12;11.10;99.90
40600;DHT22;26309;50.924;4.754;2023-10-31T06:19:38;11.20;99.90
40600;DHT22;26309;50.924;4.754;2023-10-31T06:22:04;11.10;99.90
40600;DHT22;26309;50.924;4.754;2023-10-31T06:24:30;11.00;99.90
40600;DHT22;26309;50.924;4.754;2023-10-31T06:26:55;11.10;99.90
40600;DHT22;26309;50.924;4.754;2023-10-31T06:29:22;11.10;99.90
40600;DHT22;26309;50.924;4.754;2023-10-31T06:31:48;11.10;99.90
40600;DHT22;26309;50.924;4.754;2023-10-31T06:34:14;10.90;99.90
40600;DHT22;26309;50.924;4.754;2023-10-31T06:36:40;10.90;99.90
40600;DHT22;26309;50.924;4.754;2023-10-31T06:39:06;10.80;99.90
40600;DHT22;26309;50.924;4.754;2023-10-31T06:41:32;10.90;99.90
40600;DHT22;26309;50.924;4.754;2023-10-31T06:43:58;10.80;99.90
40600;DHT22;26309;50.924;4.754;2023-10-31T06:46:24;10.90;99.90
40600;DHT22;26309;50.924;4.754;2023-10-31T06:48:50;11.10;99.90
40600;DHT22;26309;50.924;4.754;2023-10-31T06:51:15;10.90;99.90
40600;DHT22;26309;50.924;4.754;2023-10-31T06:53:41;10.80;99.90
40600;DHT22;26309;50.924;4.754;2023-10-31T06:56:07;10.90;99.90
40600;DHT22;26309;50.924;4.754;2023-10-31T06:58:33;11.00;99.90
40600;DHT22;26309;50.924;4.754;2023-10-31T07:00:59;11.00;99.90
40600;DHT22;26309;50.924;4.754;2023-10-31T07:03:25;11.00;99.90
40600;DHT22;26309;50.924;4.754;2023-10-31T07:05:51;11.00;99.90
40600;DHT22;26309;50.924;4.754;2023-10-31T07:08:18;11.00;99.90
40600;DHT22;26309;50.924;4.754;2023-10-31T07:10:44;11.00;99.90
40600;DHT22;26309;50.924;4.754;2023-10-31T07:13:09;11.00;99.90
40600;DHT22;26309;50.924;4.754;2023-10-31T07:15:35;11.10;99.90
40600;DHT22;26309;50.924;4.754;2023-10-31T07:18:05;11.20;99.90
40600;DHT22;26309;50.924;4.754;2023-10-31T07:20:40;11.30;99.90
40600;DHT22;26309;50.924;4.754;2023-10-31T07:23:06;11.20;99.90
40600;DHT22;26309;50.924;4.754;2023-10-31T07:25:32;11.20;99.90
40600;DHT22;26309;50.924;4.754;2023-10-31T07:27:58;11.20;99.90
40600;DHT22;26309;50.924;4.754;2023-10-31T07:30:23;11.30;99.90
40600;DHT22;26309;50.924;4.754;2023-10-31T07:32:50;11.20;99.90
40600;DHT22;26309;50.924;4.754;2023-10-31T07:35:15;11.30;99.90
40600;DHT22;26309;50.924;4.754;2023-10-31T07:37:41;11.30;99.90
40600;DHT22;26309;50.924;4.754;2023-10-31T07:40:08;11.40;99.90
40600;DHT22;26309;50.924;4.754;2023-10-31T07:42:34;11.40;99.90
40600;DHT22;26309;50.924;4.754;2023-10-31T07:45:00;11.40;99.90
40600;DHT22;26309;50.924;4.754;2023-10-31T07:47:26;11.50;99.90
40600;DHT22;26309;50.924;4.754;2023-10-31T07:49:52;11.40;99.90
40600;DHT22;26309;50.924;4.754;2023-10-31T07:52:21;11.40;99.90
40600;DHT22;26309;50.924;4.754;2023-10-31T07:54:47;11.60;99.90
40600;DHT22;26309;50.924;4.754;2023-10-31T07:57:13;11.70;99.90
40600;DHT22;26309;50.924;4.754;2023-10-31T07:59:39;11.70;99.90
40600;DHT22;26309;50.924;4.754;2023-10-31T08:02:05;11.70;99.90
40600;DHT22;26309;50.924;4.754;2023-10-31T08:04:31;11.70;99.90
40600;DHT22;26309;50.924;4.754;2023-10-31T08:06:57;11.90;99.90
40600;DHT22;26309;50.924;4.754;2023-10-31T08:09:23;11.90;99.90
40600;DHT22;26309;50.924;4.754;2023-10-31T08:11:50;11.90;99.90
40600;DHT22;26309;50.924;4.754;2023-10-31T08:14:15;12.10;99.90
40600;DHT22;26309;50.924;4.754;2023-10-31T08:16:44;12.20;99.90
40600;DHT22;26309;50.924;4.754;2023-10-31T08:19:10;12.20;99.90
40600;DHT22;26309;50.924;4.754;2023-10-31T08:21:37;12.20;99.90
40600;DHT22;26309;50.924;4.754;2023-10-31T08:24:04;12.20;99.90
40600;DHT22;26309;50.924;4.754;2023-10-31T08:26:31;12.30;99.90
40600;DHT22;26309;50.924;4.754;2023-10-31T08:28:58;12.30;99.90
40600;DHT22;26309;50.924;4.754;2023-10-31T08:31:24;12.40;99.90
40600;DHT22;26309;50.924;4.754;2023-10-31T08:33:50;12.40;99.90
40600;DHT22;26309;50.924;4.754;2023-10-31T08:36:16;12.50;99.90
40600;DHT22;26309;50.924;4.754;2023-10-31T08:38:42;12.50;99.90
40600;DHT22;26309;50.924;4.754;2023-10-31T08:41:08;12.60;99.90
40600;DHT22;26309;50.924;4.754;2023-10-31T08:43:34;12.60;99.90
40600;DHT22;26309;50.924;4.754;2023-10-31T08:46:00;12.80;99.90
40600;DHT22;26309;50.924;4.754;2023-10-31T08:48:26;13.00;99.90
40600;DHT22;26309;50.924;4.754;2023-10-31T08:50:52;13.10;99.90
40600;DHT22;26309;50.924;4.754;2023-10-31T08:53:18;13.00;99.90
40600;DHT22;26309;50.924;4.754;2023-10-31T08:55:48;13.20;99.90
40600;DHT22;26309;50.924;4.754;2023-10-31T08:58:14;13.20;99.90
40600;DHT22;26309;50.924;4.754;2023-10-31T09:00:40;13.40;99.90
40600;DHT22;26309;50.924;4.754;2023-10-31T09:03:07;13.40;99.90
40600;DHT22;26309;50.924;4.754;2023-10-31T09:05:37;13.40;99.90
40600;DHT22;26309;50.924;4.754;2023-10-31T09:08:02;13.30;99.90
40600;DHT22;26309;50.924;4.754;2023-10-31T09:10:28;13.20;99.90
40600;DHT22;26309;50.924;4.754;2023-10-31T09:12:54;13.30;99.90
40600;DHT22;26309;50.924;4.754;2023-10-31T09:15:20;13.50;99.90
40600;DHT22;26309;50.924;4.754;2023-10-31T09:17:47;13.60;99.90
40600;DHT22;26309;50.924;4.754;2023-10-31T09:20:13;13.60;99.90
40600;DHT22;26309;50.924;4.754;2023-10-31T09:22:39;13.70;99.90
40600;DHT22;26309;50.924;4.754;2023-10-31T09:25:05;13.70;99.90
40600;DHT22;26309;50.924;4.754;2023-10-31T09:27:31;13.90;99.90
40600;DHT22;26309;50.924;4.754;2023-10-31T09:29:57;13.80;99.90
40600;DHT22;26309;50.924;4.754;2023-10-31T09:32:23;13.90;99.90
40600;DHT22;26309;50.924;4.754;2023-10-31T09:34:49;13.90;99.90
40600;DHT22;26309;50.924;4.754;2023-10-31T09:37:14;14.20;99.90
40600;DHT22;26309;50.924;4.754;2023-10-31T09:39:40;14.40;99.90
40600;DHT22;26309;50.924;4.754;2023-10-31T09:42:07;14.70;99.90
40600;DHT22;26309;50.924;4.754;2023-10-31T09:44:33;14.60;99.90
40600;DHT22;26309;50.924;4.754;2023-10-31T09:47:00;14.60;99.90
40600;DHT22;26309;50.924;4.754;2023-10-31T09:49:27;14.50;99.90
40600;DHT22;26309;50.924;4.754;2023-10-31T09:51:54;14.60;99.90
40600;DHT22;26309;50.924;4.754;2023-10-31T09:54:20;14.60;99.90
40600;DHT22;26309;50.924;4.754;2023-10-31T09:56:47;14.60;99.90
40600;DHT22;26309;50.924;4.754;2023-10-31T09:59:16;14.60;99.90
40600;DHT22;26309;50.924;4.754;2023-10-31T10:01:42;14.80;99.90
40600;DHT22;26309;50.924;4.754;2023-10-31T10:04:09;14.90;99.90
40600;DHT22;26309;50.924;4.754;2023-10-31T10:06:39;15.00;99.90
40600;DHT22;26309;50.924;4.754;2023-10-31T10:09:05;15.00;99.90
40600;DHT22;26309;50.924;4.754;2023-10-31T10:11:34;15.10;99.90
40600;DHT22;26309;50.924;4.754;2023-10-31T10:14:00;15.30;99.90
40600;DHT22;26309;50.924;4.754;2023-10-31T10:16:33;15.40;99.90
40600;DHT22;26309;50.924;4.754;2023-10-31T10:19:19;15.30;99.90
40600;DHT22;26309;50.924;4.754;2023-10-31T10:21:50;15.20;99.90
40600;DHT22;26309;50.924;4.754;2023-10-31T10:24:17;15.30;99.90
40600;DHT22;26309;50.924;4.754;2023-10-31T10:26:44;15.00;99.90
40600;DHT22;26309;50.924;4.754;2023-10-31T10:29:10;15.10;99.90
40600;DHT22;26309;50.924;4.754;2023-10-31T10:31:36;15.00;99.90
40600;DHT22;26309;50.924;4.754;2023-10-31T10:34:02;14.90;99.90
40600;DHT22;26309;50.924;4.754;2023-10-31T10:36:28;14.80;99.90
40600;DHT22;26309;50.924;4.754;2023-10-31T10:38:57;14.70;99.90
40600;DHT22;26309;50.924;4.754;2023-10-31T10:41:27;14.70;99.90
40600;DHT22;26309;50.924;4.754;2023-10-31T10:44:04;14.80;99.90
40600;DHT22;26309;50.924;4.754;2023-10-31T10:46:35;15.10;99.90
40600;DHT22;26309;50.924;4.754;2023-10-31T10:49:06;15.20;99.90
40600;DHT22;26309;50.924;4.754;2023-10-31T10:54:32;15.30;99.90
40600;DHT22;26309;50.924;4.754;2023-10-31T10:59:56;15.30;99.90
40600;DHT22;26309;50.924;4.754;2023-10-31T11:02:25;15.20;99.90
40600;DHT22;26309;50.924;4.754;2023-10-31T11:04:53;15.00;99.90
40600;DHT22;26309;50.924;4.754;2023-10-31T11:07:20;15.00;99.90
40600;DHT22;26309;50.924;4.754;2023-10-31T11:09:48;14.90;99.90
40600;DHT22;26309;50.924;4.754;2023-10-31T11:12:15;14.60;99.90
40600;DHT22;26309;50.924;4.754;2023-10-31T11:14:43;14.60;99.90
40600;DHT22;26309;50.924;4.754;2023-10-31T11:17:27;14.70;99.90
40600;DHT22;26309;50.924;4.754;2023-10-31T11:19:55;14.80;99.90
40600;DHT22;26309;50.924;4.754;2023-10-31T11:22:21;14.60;99.90
40600;DHT22;26309;50.924;4.754;2023-10-31T11:24:51;14.60;99.90
40600;DHT22;26309;50.924;4.754;2023-10-31T11:27:17;14.70;99.90
40600;DHT22;26309;50.924;4.754;2023-10-31T11:29:44;14.80;99.90
40600;DHT22;26309;50.924;4.754;2023-10-31T11:32:10;14.80;99.90
40600;DHT22;26309;50.924;4.754;2023-10-31T11:34:46;14.70;99.90
40600;DHT22;26309;50.924;4.754;2023-10-31T11:37:39;14.70;99.90
40600;DHT22;26309;50.924;4.754;2023-10-31T11:40:20;14.90;99.90
40600;DHT22;26309;50.924;4.754;2023-10-31T11:42:53;14.90;99.90
40600;DHT22;26309;50.924;4.754;2023-10-31T11:45:48;14.90;99.90
40600;DHT22;26309;50.924;4.754;2023-10-31T11:48:15;15.30;99.90
40600;DHT22;26309;50.924;4.754;2023-10-31T11:50:41;15.40;99.90
40600;DHT22;26309;50.924;4.754;2023-10-31T11:53:12;15.20;99.90
40600;DHT22;26309;50.924;4.754;2023-10-31T11:55:43;15.00;99.90
40600;DHT22;26309;50.924;4.754;2023-10-31T11:58:19;15.00;99.90
40600;DHT22;26309;50.924;4.754;2023-10-31T12:00:50;14.70;99.90
40600;DHT22;26309;50.924;4.754;2023-10-31T12:03:25;14.60;99.90
40600;DHT22;26309;50.924;4.754;2023-10-31T12:05:54;14.60;99.90
40600;DHT22;26309;50.924;4.754;2023-10-31T12:08:30;14.70;99.90
40600;DHT22;26309;50.924;4.754;2023-10-31T12:11:09;14.50;99.90
40600;DHT22;26309;50.924;4.754;2023-10-31T12:13:38;14.50;99.90
40600;DHT22;26309;50.924;4.754;2023-10-31T12:16:05;14.60;99.90
40600;DHT22;26309;50.924;4.754;2023-10-31T12:18:35;14.30;99.90
40600;DHT22;26309;50.924;4.754;2023-10-31T12:21:02;14.20;99.90
40600;DHT22;26309;50.924;4.754;2023-10-31T12:23:28;14.20;99.90
40600;DHT22;26309;50.924;4.754;2023-10-31T12:25:54;14.30;99.90
40600;DHT22;26309;50.924;4.754;2023-10-31T12:28:22;14.40;99.90
40600;DHT22;26309;50.924;4.754;2023-10-31T12:30:50;14.30;99.90
40600;DHT22;26309;50.924;4.754;2023-10-31T12:33:17;14.10;99.90
40600;DHT22;26309;50.924;4.754;2023-10-31T12:35:44;14.00;99.90
40600;DHT22;26309;50.924;4.754;2023-10-31T12:38:14;14.00;99.90
40600;DHT22;26309;50.924;4.754;2023-10-31T12:40:42;13.90;99.90
40600;DHT22;26309;50.924;4.754;2023-10-31T12:43:08;14.00;99.90
40600;DHT22;26309;50.924;4.754;2023-10-31T12:45:37;14.00;99.90
40600;DHT22;26309;50.924;4.754;2023-10-31T12:48:06;14.00;99.90
40600;DHT22;26309;50.924;4.754;2023-10-31T12:50:33;13.80;99.90
40600;DHT22;26309;50.924;4.754;2023-10-31T12:52:59;14.00;99.90
40600;DHT22;26309;50.924;4.754;2023-10-31T12:55:27;14.00;99.90
40600;DHT22;26309;50.924;4.754;2023-10-31T12:57:56;14.00;99.90
40600;DHT22;26309;50.924;4.754;2023-10-31T13:00:31;14.00;99.90
40600;DHT22;26309;50.924;4.754;2023-10-31T13:03:05;13.80;99.90
40600;DHT22;26309;50.924;4.754;2023-10-31T13:05:32;13.80;99.90
40600;DHT22;26309;50.924;4.754;2023-10-31T13:07:58;13.80;99.90
40600;DHT22;26309;50.924;4.754;2023-10-31T13:10:27;13.70;99.90
40600;DHT22;26309;50.924;4.754;2023-10-31T13:12:54;13.80;99.90
40600;DHT22;26309;50.924;4.754;2023-10-31T13:15:22;13.80;99.90
40600;DHT22;26309;50.924;4.754;2023-10-31T13:17:49;13.90;99.90
40600;DHT22;26309;50.924;4.754;2023-10-31T13:20:20;13.80;99.90
40600;DHT22;26309;50.924;4.754;2023-10-31T13:22:46;13.70;99.90
40600;DHT22;26309;50.924;4.754;2023-10-31T13:25:15;13.70;99.90
40600;DHT22;26309;50.924;4.754;2023-10-31T13:27:43;13.70;99.90
40600;DHT22;26309;50.924;4.754;2023-10-31T13:30:10;13.70;99.90
40600;DHT22;26309;50.924;4.754;2023-10-31T13:32:37;13.80;99.90
40600;DHT22;26309;50.924;4.754;2023-10-31T13:35:05;13.80;99.90
40600;DHT22;26309;50.924;4.754;2023-10-31T13:37:31;13.90;99.90
40600;DHT22;26309;50.924;4.754;2023-10-31T13:39:57;14.00;99.90
40600;DHT22;26309;50.924;4.754;2023-10-31T13:42:23;13.90;99.90
40600;DHT22;26309;50.924;4.754;2023-10-31T13:44:48;13.80;99.90
40600;DHT22;26309;50.924;4.754;2023-10-31T13:47:14;13.80;99.90
40600;DHT22;26309;50.924;4.754;2023-10-31T13:49:40;13.90;99.90
40600;DHT22;26309;50.924;4.754;2023-10-31T13:52:06;14.00;99.90
40600;DHT22;26309;50.924;4.754;2023-10-31T13:54:32;14.00;99.90
40600;DHT22;26309;50.924;4.754;2023-10-31T13:56:59;14.00;99.90
40600;DHT22;26309;50.924;4.754;2023-10-31T13:59:25;13.90;99.90
40600;DHT22;26309;50.924;4.754;2023-10-31T14:01:57;13.90;99.90
40600;DHT22;26309;50.924;4.754;2023-10-31T14:04:23;14.00;99.90
40600;DHT22;26309;50.924;4.754;2023-10-31T14:06:49;14.00;99.90
40600;DHT22;26309;50.924;4.754;2023-10-31T14:09:15;14.00;99.90
40600;DHT22;26309;50.924;4.754;2023-10-31T14:11:41;14.00;99.90
40600;DHT22;26309;50.924;4.754;2023-10-31T14:14:08;14.00;99.90
40600;DHT22;26309;50.924;4.754;2023-10-31T14:16:42;14.00;99.90
40600;DHT22;26309;50.924;4.754;2023-10-31T14:19:12;14.00;99.90
40600;DHT22;26309;50.924;4.754;2023-10-31T14:21:38;14.00;99.90
40600;DHT22;26309;50.924;4.754;2023-10-31T14:24:05;14.10;99.90
40600;DHT22;26309;50.924;4.754;2023-10-31T14:26:34;14.10;99.90
40600;DHT22;26309;50.924;4.754;2023-10-31T14:29:00;14.20;99.90
40600;DHT22;26309;50.924;4.754;2023-10-31T14:31:27;14.30;99.90
40600;DHT22;26309;50.924;4.754;2023-10-31T14:33:52;14.50;99.90
40600;DHT22;26309;50.924;4.754;2023-10-31T14:36:29;14.70;99.90
40600;DHT22;26309;50.924;4.754;2023-10-31T14:38:55;14.60;99.90
40600;DHT22;26309;50.924;4.754;2023-10-31T14:41:20;14.50;99.90
40600;DHT22;26309;50.924;4.754;2023-10-31T14:43:47;14.60;99.90
40600;DHT22;26309;50.924;4.754;2023-10-31T14:46:13;14.50;99.90
40600;DHT22;26309;50.924;4.754;2023-10-31T14:48:39;14.50;99.90
40600;DHT22;26309;50.924;4.754;2023-10-31T14:51:05;14.50;99.90
40600;DHT22;26309;50.924;4.754;2023-10-31T14:53:31;14.50;99.90
40600;DHT22;26309;50.924;4.754;2023-10-31T14:55:57;14.60;99.90
40600;DHT22;26309;50.924;4.754;2023-10-31T14:58:22;14.50;99.90
40600;DHT22;26309;50.924;4.754;2023-10-31T15:00:51;14.30;99.90
40600;DHT22;26309;50.924;4.754;2023-10-31T15:03:19;14.20;99.90
40600;DHT22;26309;50.924;4.754;2023-10-31T15:05:45;13.90;99.90
40600;DHT22;26309;50.924;4.754;2023-10-31T15:08:11;13.80;99.90
40600;DHT22;26309;50.924;4.754;2023-10-31T15:10:42;13.80;99.90
40600;DHT22;26309;50.924;4.754;2023-10-31T15:13:13;13.90;99.90
40600;DHT22;26309;50.924;4.754;2023-10-31T15:15:39;13.80;99.90
40600;DHT22;26309;50.924;4.754;2023-10-31T15:18:04;13.80;99.90
40600;DHT22;26309;50.924;4.754;2023-10-31T15:20:30;13.90;99.90
40600;DHT22;26309;50.924;4.754;2023-10-31T15:22:56;13.90;99.90
40600;DHT22;26309;50.924;4.754;2023-10-31T15:25:22;14.00;99.90
40600;DHT22;26309;50.924;4.754;2023-10-31T15:27:48;14.00;99.90
40600;DHT22;26309;50.924;4.754;2023-10-31T15:30:14;13.90;99.90
40600;DHT22;26309;50.924;4.754;2023-10-31T15:32:40;13.70;99.90
40600;DHT22;26309;50.924;4.754;2023-10-31T15:35:06;13.70;99.90